Time;durP1;ratioP1;P1;durP2;ratioP2;P2;SDS_P1;SDS_P2;PMS_P1;PMS_P2;Temp;Humidity;BMP_temperature;BMP_pressure;BME280_temperature;BME280_humidity;BME280_pressure;Samples;Min_cycle;Max_cycle;Signal;HPM_P1;HPM_P2
2022/02/05 00:01:13;;;;;;;12.38;10.18;;;;;21.40;100398.00;;;;2046580;28;20224;-46
2022/02/05 00:02:17;;;;;;;12.70;11.10;;;;;21.40;100398.00;;;;2051144;28;20315;-46
2022/02/05 00:03:29;;;;;;;12.60;10.68;;;;;21.40;100401.00;;;;2054040;28;20631;-46
2022/02/05 00:04:31;;;;;;;12.25;10.23;;;;;21.40;100401.00;;;;2053711;28;20217;-48
2022/02/05 00:05:43;;;;;;;14.45;10.98;;;;;21.40;100403.00;;;;2054612;28;20216;-46
2022/02/05 00:06:48;;;;;;;12.85;10.10;;;;;21.40;100402.00;;;;2049646;28;20224;-45
2022/02/05 00:07:57;;;;;;;11.65;9.80;;;;;21.40;100399.00;;;;2046706;28;20220;-46
2022/02/05 00:09:15;;;;;;;11.40;9.40;;;;;21.40;100398.00;;;;2051388;28;20329;-45
2022/02/05 00:10:45;;;;;;;13.65;9.60;;;;;21.40;100401.00;;;;2046259;28;20303;-46
2022/02/05 00:33:13;;;;;;;8.77;7.32;;;;;21.30;100415.00;;;;2060581;28;20222;-45
2022/02/05 00:40:16;;;;;;;5.82;4.90;;;;;21.20;100453.00;;;;2053783;28;20305;-46
2022/02/05 00:41:27;;;;;;;8.82;6.57;;;;;21.20;100448.00;;;;2053553;28;20223;-46
2022/02/05 00:42:32;;;;;;;7.53;6.20;;;;;21.20;100455.00;;;;2057517;28;20307;-45
2022/02/05 00:43:32;;;;;;;7.57;6.28;;;;;21.20;100451.00;;;;2053399;28;20759;-46
2022/02/05 00:44:33;;;;;;;7.53;5.37;;;;;21.20;100452.00;;;;2054682;28;20226;-46
2022/02/05 00:45:38;;;;;;;6.67;5.33;;;;;21.20;100451.00;;;;2061452;28;20246;-46
2022/02/05 00:46:40;;;;;;;6.45;5.15;;;;;21.20;100465.00;;;;2061496;28;20721;-46
2022/02/05 00:47:44;;;;;;;5.90;5.30;;;;;21.20;100468.00;;;;2061627;28;20809;-46
2022/02/05 00:48:45;;;;;;;6.00;5.40;;;;;21.20;100464.00;;;;2061838;28;20221;-46
2022/02/05 00:49:54;;;;;;;8.13;5.57;;;;;21.20;100450.00;;;;2060926;28;20305;-46
2022/02/05 00:51:07;;;;;;;6.10;4.88;;;;;21.20;100464.00;;;;2060933;28;20361;-46
2022/02/05 00:52:11;;;;;;;5.97;5.38;;;;;21.20;100462.00;;;;2053746;28;20215;-46
2022/02/05 00:53:23;;;;;;;6.32;5.13;;;;;21.20;100457.00;;;;2053885;28;20215;-46
2022/02/05 00:54:26;;;;;;;5.80;4.53;;;;;21.20;100453.00;;;;2053912;28;20223;-46
2022/02/05 00:55:33;;;;;;;7.53;5.32;;;;;21.10;100464.00;;;;2057523;28;20222;-45
2022/02/05 00:57:46;;;;;;;6.88;4.90;;;;;21.10;100462.00;;;;2058937;28;20219;-46
2022/02/05 00:58:46;;;;;;;7.20;5.33;;;;;21.10;100468.00;;;;2061359;28;20218;-45
2022/02/05 00:59:47;;;;;;;6.23;4.87;;;;;21.10;100461.00;;;;2060404;28;20219;-45
2022/02/05 01:00:47;;;;;;;5.90;5.30;;;;;21.10;100464.00;;;;2057548;28;20331;-46
2022/02/05 01:01:49;;;;;;;6.00;4.30;;;;;21.10;100461.00;;;;2061563;28;20207;-46
2022/02/05 01:02:50;;;;;;;6.90;5.25;;;;;21.10;100468.00;;;;2053180;28;20809;-46
2022/02/05 01:03:50;;;;;;;5.83;4.63;;;;;21.10;100464.00;;;;2053106;28;20404;-46
2022/02/05 01:04:50;;;;;;;6.67;5.10;;;;;21.10;100470.00;;;;2062213;28;20261;-46
2022/02/05 01:05:51;;;;;;;6.63;4.53;;;;;21.10;100466.00;;;;2062181;28;20219;-46
2022/02/05 01:06:51;;;;;;;5.30;4.17;;;;;21.10;100466.00;;;;2054586;28;20964;-46
2022/02/05 01:07:51;;;;;;;5.30;4.73;;;;;21.10;100469.00;;;;2053502;28;20714;-46
2022/02/05 01:08:52;;;;;;;6.70;4.80;;;;;21.10;100463.00;;;;2053514;28;20707;-46
2022/02/05 01:09:52;;;;;;;7.17;4.67;;;;;21.10;100475.00;;;;2052340;28;20724;-46
2022/02/05 01:10:53;;;;;;;6.10;4.57;;;;;21.10;100477.00;;;;2053764;28;20990;-46
2022/02/05 01:11:56;;;;;;;5.13;4.40;;;;;21.10;100479.00;;;;2048842;28;20810;-46
2022/02/05 01:13:02;;;;;;;7.35;4.75;;;;;21.10;100481.00;;;;2048789;28;21099;-46
2022/02/05 01:14:04;;;;;;;5.57;4.45;;;;;21.10;100485.00;;;;2052244;28;20239;-46
2022/02/05 01:15:05;;;;;;;5.82;4.03;;;;;21.10;100486.00;;;;2053460;28;20219;-46
2022/02/05 01:16:18;;;;;;;6.53;4.10;;;;;21.10;100487.00;;;;2044283;28;20243;-45
2022/02/05 01:17:25;;;;;;;6.53;4.30;;;;;21.10;100478.00;;;;2054707;28;20466;-46
2022/02/05 01:18:26;;;;;;;6.10;4.00;;;;;21.00;100487.00;;;;2048289;28;20218;-46
2022/02/05 01:22:02;;;;;;;5.38;4.40;;;;;21.10;100488.00;;;;2053150;28;20230;-46
2022/02/05 01:23:06;;;;;;;4.18;3.35;;;;;21.00;100501.00;;;;2058599;28;20679;-46
2022/02/05 01:24:10;;;;;;;4.50;3.83;;;;;21.00;100490.00;;;;2063437;28;21070;-46
2022/02/05 01:25:13;;;;;;;7.93;4.60;;;;;21.00;100495.00;;;;2061249;28;20234;-49
2022/02/05 01:26:25;;;;;;;4.13;3.72;;;;;21.00;100498.00;;;;2063324;28;20637;-47
2022/02/05 01:27:37;;;;;;;5.57;4.13;;;;;21.00;100502.00;;;;2063333;28;20215;-46
2022/02/05 01:28:39;;;;;;;4.93;3.90;;;;;21.00;100505.00;;;;2061036;28;20274;-46
2022/02/05 01:30:18;;;;;;;4.57;3.63;;;;;21.00;100509.00;;;;2063649;28;20214;-46
2022/02/05 01:31:06;;;;;;;4.95;3.80;;;;;21.00;100515.00;;;;2059393;28;20222;-46
2022/02/05 01:32:13;;;;;;;5.53;3.83;;;;;21.00;100507.00;;;;2061025;28;20219;-46
2022/02/05 01:34:34;;;;;;;4.95;3.80;;;;;21.00;100520.00;;;;2055426;28;20313;-46
2022/02/05 01:36:00;;;;;;;3.75;3.30;;;;;21.00;100512.00;;;;2060915;28;20242;-46
2022/02/05 01:50:13;;;;;;;4.80;3.00;;;;;20.90;100535.00;;;;2058931;28;20206;-46
2022/02/05 01:53:36;;;;;;;3.80;2.72;;;;;20.90;100539.00;;;;2062811;28;20223;-46
2022/02/05 01:56:59;;;;;;;5.00;3.25;;;;;20.90;100540.00;;;;2063418;28;20246;-46
2022/02/05 02:05:03;;;;;;;4.88;2.83;;;;;20.90;100536.00;;;;2007291;29;20604;-46
2022/02/05 02:11:34;;;;;;;3.22;2.72;;;;;20.90;100544.00;;;;2055264;28;20293;-46
2022/02/05 02:12:38;;;;;;;3.28;2.60;;;;;20.90;100545.00;;;;2061128;28;20233;-46
2022/02/05 02:19:24;;;;;;;2.80;2.22;;;;;20.80;100550.00;;;;2062851;28;20274;-46
2022/02/05 02:21:42;;;;;;;4.18;2.85;;;;;20.80;100547.00;;;;2054795;28;20219;-46
2022/02/05 02:22:54;;;;;;;4.28;2.92;;;;;20.80;100538.00;;;;2059723;28;20273;-46
2022/02/05 02:25:06;;;;;;;4.30;2.30;;;;;20.80;100549.00;;;;2062231;28;20218;-45
2022/02/05 02:29:14;;;;;;;3.90;2.45;;;;;20.80;100561.00;;;;2049604;28;20243;-46
2022/02/05 02:30:19;;;;;;;4.45;2.50;;;;;20.80;100560.00;;;;2062170;28;20675;-45
2022/02/05 02:31:24;;;;;;;3.15;2.33;;;;;20.80;100553.00;;;;2062627;28;20241;-46
2022/02/05 02:32:26;;;;;;;2.25;2.03;;;;;20.80;100556.00;;;;2062633;28;20199;-46
2022/02/05 02:33:32;;;;;;;3.28;2.67;;;;;20.80;100565.00;;;;2063314;28;20215;-46
2022/02/05 02:34:38;;;;;;;3.50;2.80;;;;;20.80;100560.00;;;;2063378;28;20217;-46
2022/02/05 02:35:44;;;;;;;2.97;2.10;;;;;20.80;100550.00;;;;2063283;28;20313;-46
2022/02/05 02:36:54;;;;;;;4.20;2.85;;;;;20.80;100556.00;;;;2062414;28;20637;-46
2022/02/05 02:38:00;;;;;;;4.32;2.22;;;;;20.80;100570.00;;;;2061960;28;20219;-46
2022/02/05 02:39:21;;;;;;;2.53;2.08;;;;;20.80;100565.00;;;;2063110;28;20221;-46
2022/02/05 02:41:30;;;;;;;4.05;3.05;;;;;20.80;100560.00;;;;2052543;28;20219;-46
2022/02/05 02:42:30;;;;;;;3.83;2.60;;;;;20.80;100566.00;;;;2062183;28;20254;-46
2022/02/05 02:43:33;;;;;;;3.90;2.13;;;;;20.80;100569.00;;;;2062663;28;20207;-46
2022/02/05 02:44:34;;;;;;;4.35;2.35;;;;;20.80;100566.00;;;;2062223;28;20295;-46
2022/02/05 02:45:35;;;;;;;5.00;2.60;;;;;20.70;100570.00;;;;2059666;28;20318;-46
2022/02/05 02:46:36;;;;;;;3.75;2.85;;;;;20.80;100572.00;;;;2054595;28;20204;-46
2022/02/05 02:47:42;;;;;;;4.32;2.90;;;;;20.70;100579.00;;;;2053745;28;20220;-46
2022/02/05 02:48:45;;;;;;;3.30;2.30;;;;;20.70;100573.00;;;;2054218;28;20216;-46
2022/02/05 02:56:30;;;;;;;3.70;2.53;;;;;20.70;100582.00;;;;2062900;28;20697;-46
2022/02/05 02:56:43;;;;;;;2.78;2.42;;;;;20.70;100573.00;;;;2058992;28;20843;-46
2022/02/05 02:57:50;;;;;;;5.20;2.35;;;;;20.70;100579.00;;;;2062194;28;20233;-45
2022/02/05 02:58:52;;;;;;;3.15;2.00;;;;;20.70;100574.00;;;;2055199;28;20300;-46
2022/02/05 03:00:58;;;;;;;4.90;2.60;;;;;20.70;100577.00;;;;2054215;28;20250;-46
2022/02/05 03:02:07;;;;;;;5.85;2.25;;;;;20.70;100583.00;;;;2060419;28;20219;-46
2022/02/05 03:03:08;;;;;;;3.72;2.45;;;;;20.70;100577.00;;;;2062343;28;20623;-46
2022/02/05 03:04:08;;;;;;;6.67;2.63;;;;;20.70;100579.00;;;;2062953;28;20235;-46
2022/02/05 03:05:08;;;;;;;3.30;2.40;;;;;20.70;100578.00;;;;2063029;28;20233;-46
2022/02/05 03:06:09;;;;;;;3.13;2.50;;;;;20.70;100577.00;;;;2061633;28;20230;-45
2022/02/05 03:07:09;;;;;;;3.10;2.27;;;;;20.70;100575.00;;;;2062904;28;20207;-46
2022/02/05 03:08:09;;;;;;;5.00;2.00;;;;;20.70;100573.00;;;;2057549;28;20223;-46
2022/02/05 03:09:12;;;;;;;3.10;2.37;;;;;20.70;100589.00;;;;2055029;28;20752;-46
2022/02/05 03:10:13;;;;;;;3.63;2.50;;;;;20.70;100588.00;;;;2053748;28;20223;-46
2022/02/05 03:11:16;;;;;;;2.50;2.10;;;;;20.70;100582.00;;;;2053481;28;20632;-46
2022/02/05 03:12:17;;;;;;;3.95;2.72;;;;;20.60;100583.00;;;;2054190;28;20330;-46
2022/02/05 03:13:17;;;;;;;3.03;2.43;;;;;20.60;100592.00;;;;2054546;28;20216;-46
2022/02/05 03:14:19;;;;;;;4.85;2.60;;;;;20.60;100592.00;;;;2054797;28;20447;-46
2022/02/05 03:15:20;;;;;;;3.38;2.35;;;;;20.70;100583.00;;;;2058708;28;20226;-46
2022/02/05 03:16:26;;;;;;;3.40;2.20;;;;;20.70;100579.00;;;;2062968;28;20290;-46
2022/02/05 03:17:32;;;;;;;3.70;2.38;;;;;20.60;100588.00;;;;2063008;28;20215;-46
2022/02/05 03:19:09;;;;;;;3.70;2.10;;;;;20.60;100591.00;;;;2062025;28;20219;-46
2022/02/05 03:19:55;;;;;;;4.95;2.55;;;;;20.60;100597.00;;;;2062454;28;21071;-46
2022/02/05 03:20:55;;;;;;;4.43;2.40;;;;;20.60;100596.00;;;;2059508;28;20237;-46
2022/02/05 03:21:55;;;;;;;4.43;2.20;;;;;20.60;100602.00;;;;2058739;28;20230;-46
2022/02/05 03:22:56;;;;;;;5.30;2.60;;;;;20.60;100599.00;;;;2057707;28;20941;-46
2022/02/05 03:23:57;;;;;;;3.83;2.33;;;;;20.60;100601.00;;;;2053683;28;20615;-46
2022/02/05 03:25:01;;;;;;;4.57;2.57;;;;;20.60;100596.00;;;;2054821;28;20219;-46
2022/02/05 03:26:01;;;;;;;4.07;2.20;;;;;20.60;100604.00;;;;2052563;28;20635;-46
2022/02/05 03:27:03;;;;;;;3.80;2.10;;;;;20.60;100611.00;;;;2053811;28;20251;-46
2022/02/05 03:28:03;;;;;;;3.40;2.35;;;;;20.60;100604.00;;;;2053082;28;20521;-46
2022/02/05 03:29:06;;;;;;;3.97;2.80;;;;;20.60;100605.00;;;;2054069;28;20251;-46
2022/02/05 03:30:06;;;;;;;4.25;2.30;;;;;20.60;100612.00;;;;2054843;28;20226;-46
2022/02/05 03:31:07;;;;;;;3.93;2.43;;;;;20.60;100614.00;;;;2054209;28;20306;-45
2022/02/05 03:32:08;;;;;;;3.70;2.30;;;;;20.60;100614.00;;;;2054504;28;20759;-46
2022/02/05 03:33:08;;;;;;;4.35;2.35;;;;;20.60;100609.00;;;;2054653;28;20243;-46
2022/02/05 03:34:09;;;;;;;4.60;2.87;;;;;20.60;100618.00;;;;2062168;28;20221;-46
2022/02/05 03:35:09;;;;;;;3.23;2.40;;;;;20.60;100616.00;;;;2057870;28;20274;-46
2022/02/05 03:36:10;;;;;;;3.20;2.03;;;;;20.60;100615.00;;;;2053909;28;20367;-46
2022/02/05 03:37:10;;;;;;;4.20;2.50;;;;;20.60;100607.00;;;;2054220;28;20326;-46
2022/02/05 03:38:10;;;;;;;6.27;3.23;;;;;20.60;100621.00;;;;2054755;28;20840;-46
2022/02/05 03:39:11;;;;;;;3.37;2.40;;;;;20.60;100622.00;;;;2054776;28;20226;-46
2022/02/05 03:40:12;;;;;;;3.27;2.33;;;;;20.60;100617.00;;;;2051917;28;20307;-46
2022/02/05 03:41:12;;;;;;;4.57;2.35;;;;;20.60;100621.00;;;;2053224;28;20215;-46
2022/02/05 03:42:12;;;;;;;5.73;2.50;;;;;20.60;100615.00;;;;2052327;28;20227;-46
2022/02/05 03:43:13;;;;;;;6.07;2.60;;;;;20.60;100627.00;;;;2044444;28;20222;-46
2022/02/05 03:44:13;;;;;;;4.37;2.37;;;;;20.60;100625.00;;;;2062005;28;20257;-46
2022/02/05 03:45:15;;;;;;;3.40;2.40;;;;;20.60;100626.00;;;;2060919;28;20219;-46
2022/02/05 03:46:15;;;;;;;4.88;2.45;;;;;20.60;100618.00;;;;2054486;28;20639;-46
2022/02/05 03:47:16;;;;;;;3.60;2.40;;;;;20.60;100631.00;;;;2054730;28;20254;-46
2022/02/05 03:48:17;;;;;;;3.72;1.90;;;;;20.50;100625.00;;;;2054637;28;20278;-46
2022/02/05 03:49:18;;;;;;;4.83;2.13;;;;;20.50;100626.00;;;;2055507;28;20627;-46
2022/02/05 03:50:19;;;;;;;4.55;2.22;;;;;20.50;100624.00;;;;2061414;28;20221;-46
2022/02/05 03:51:19;;;;;;;4.37;2.27;;;;;20.50;100627.00;;;;2060315;28;20211;-45
2022/02/05 03:52:20;;;;;;;3.60;1.87;;;;;20.50;100634.00;;;;2062677;28;20218;-45
2022/02/05 03:53:20;;;;;;;4.60;2.03;;;;;20.50;100621.00;;;;2061649;28;20959;-46
2022/02/05 03:54:21;;;;;;;3.70;2.10;;;;;20.50;100631.00;;;;2062536;28;20299;-45
2022/02/05 03:55:22;;;;;;;3.38;2.10;;;;;20.50;100629.00;;;;2060697;28;20603;-47
2022/02/05 03:56:22;;;;;;;2.83;2.20;;;;;20.50;100632.00;;;;2061251;28;20317;-46
2022/02/05 03:57:23;;;;;;;4.27;1.90;;;;;20.50;100628.00;;;;2061846;28;20300;-46
2022/02/05 03:58:23;;;;;;;3.60;2.50;;;;;20.50;100630.00;;;;2062092;28;20227;-46
2022/02/05 03:59:23;;;;;;;3.03;2.23;;;;;20.50;100635.00;;;;2057008;28;20290;-46
2022/02/05 04:00:24;;;;;;;3.00;1.97;;;;;20.50;100631.00;;;;2060815;28;20221;-46
2022/02/05 04:01:24;;;;;;;5.23;2.20;;;;;20.50;100628.00;;;;2062039;28;20226;-46
2022/02/05 04:02:25;;;;;;;4.10;1.90;;;;;20.50;100628.00;;;;2062129;28;20306;-45
2022/02/05 04:03:25;;;;;;;4.10;2.13;;;;;20.50;100641.00;;;;2059719;28;20222;-45
2022/02/05 04:04:28;;;;;;;4.37;2.20;;;;;20.50;100635.00;;;;2062234;28;20608;-46
2022/02/05 04:05:29;;;;;;;4.45;2.03;;;;;20.50;100638.00;;;;2062419;28;20277;-46
2022/02/05 04:06:30;;;;;;;3.05;1.90;;;;;20.50;100644.00;;;;2062013;28;20214;-46
2022/02/05 04:07:37;;;;;;;4.75;2.25;;;;;20.50;100637.00;;;;2060880;28;20253;-46
2022/02/05 04:08:37;;;;;;;3.25;1.80;;;;;20.50;100642.00;;;;2052456;28;20211;-46
2022/02/05 04:09:42;;;;;;;3.03;1.73;;;;;20.50;100641.00;;;;2055434;28;20313;-46
2022/02/05 04:10:48;;;;;;;4.43;2.20;;;;;20.50;100634.00;;;;2060962;28;20213;-46
2022/02/05 04:16:47;;;;;;;3.38;2.00;;;;;20.50;100647.00;;;;2062072;28;20218;-46
2022/02/05 04:17:48;;;;;;;2.90;1.90;;;;;20.50;100640.00;;;;2059888;28;20223;-46
2022/02/05 04:18:54;;;;;;;3.77;2.23;;;;;20.50;100652.00;;;;2061876;28;20309;-46
2022/02/05 04:19:57;;;;;;;4.55;2.20;;;;;20.50;100654.00;;;;2061736;28;20203;-46
2022/02/05 04:20:57;;;;;;;4.32;2.33;;;;;20.30;100644.00;;;;2060816;28;21095;-46
2022/02/05 04:21:57;;;;;;;4.10;2.27;;;;;20.50;100647.00;;;;2061298;28;20254;-46
2022/02/05 04:22:58;;;;;;;4.80;2.20;;;;;20.50;100614.00;;;;2060209;28;20227;-45
2022/02/05 04:24:01;;;;;;;3.87;2.13;;;;;20.50;100658.00;;;;2060436;28;20639;-46
2022/02/05 04:25:02;;;;;;;3.80;2.20;;;;;20.40;100646.00;;;;2060563;28;20223;-46
2022/02/05 04:26:02;;;;;;;3.20;2.63;;;;;20.40;100646.00;;;;2061205;28;20215;-46
2022/02/05 04:27:04;;;;;;;2.73;2.10;;;;;20.40;100653.00;;;;2062531;28;20301;-46
2022/02/05 04:28:05;;;;;;;4.50;1.98;;;;;20.40;100658.00;;;;2053290;28;20231;-46
2022/02/05 04:29:09;;;;;;;4.27;2.17;;;;;20.50;100645.00;;;;2052861;28;20319;-46
2022/02/05 04:30:10;;;;;;;3.78;2.28;;;;;20.40;100660.00;;;;2062136;28;20508;-47
2022/02/05 04:31:10;;;;;;;4.00;2.27;;;;;20.40;100650.00;;;;2060785;28;20319;-46
2022/02/05 04:32:13;;;;;;;3.63;1.77;;;;;20.40;100649.00;;;;2061774;28;20735;-46
2022/02/05 04:33:14;;;;;;;3.35;2.20;;;;;20.40;100662.00;;;;2061574;28;20362;-46
2022/02/05 04:34:16;;;;;;;5.10;2.40;;;;;20.40;100655.00;;;;2062360;28;20293;-46
2022/02/05 04:35:16;;;;;;;4.05;2.10;;;;;20.40;100643.00;;;;2061777;28;20454;-46
2022/02/05 04:36:18;;;;;;;3.33;2.20;;;;;20.40;100654.00;;;;2061575;28;20666;-46
2022/02/05 04:37:22;;;;;;;3.15;2.20;;;;;20.40;100652.00;;;;2061854;28;20221;-46
2022/02/05 04:38:23;;;;;;;3.45;2.33;;;;;20.40;100654.00;;;;2059618;28;20222;-46
2022/02/05 04:39:24;;;;;;;3.45;2.00;;;;;20.40;100656.00;;;;2054218;28;20211;-46
2022/02/05 04:40:52;;;;;;;3.88;2.53;;;;;20.40;100662.00;;;;2052858;28;20211;-45
2022/02/05 04:42:07;;;;;;;3.72;2.10;;;;;20.40;100664.00;;;;2058364;28;20775;-46
2022/02/05 04:43:26;;;;;;;3.78;1.90;;;;;20.40;100651.00;;;;2061983;28;20215;-46
2022/02/05 04:44:52;;;;;;;3.55;1.80;;;;;20.40;100655.00;;;;2061365;28;20373;-45
2022/02/05 04:53:16;;;;;;;4.10;1.80;;;;;20.30;100657.00;;;;2061157;28;20214;-46
2022/02/05 04:58:26;;;;;;;4.70;2.00;;;;;20.30;100665.00;;;;2061669;28;20230;-46
2022/02/05 05:03:32;;;;;;;4.35;2.05;;;;;20.30;100689.00;;;;2062040;28;20218;-46
2022/02/05 05:04:43;;;;;;;3.30;2.17;;;;;20.30;100679.00;;;;2062140;28;20210;-46
2022/02/05 05:09:37;;;;;;;4.60;2.20;;;;;20.30;100695.00;;;;2061890;28;20206;-46
2022/02/05 05:13:12;;;;;;;3.15;1.90;;;;;20.30;100695.00;;;;2061905;28;20218;-46
2022/02/05 05:19:25;;;;;;;3.67;1.85;;;;;20.30;100699.00;;;;2060697;28;20694;-46
2022/02/05 05:20:26;;;;;;;4.25;2.00;;;;;20.30;100696.00;;;;2057910;28;20230;-45
2022/02/05 05:21:27;;;;;;;4.70;2.10;;;;;20.30;100692.00;;;;2061568;28;20222;-46
2022/02/05 05:22:28;;;;;;;4.57;1.80;;;;;20.20;100694.00;;;;2062060;28;20258;-45
2022/02/05 05:23:29;;;;;;;3.27;2.00;;;;;20.30;100701.00;;;;2061477;28;20213;-46
2022/02/05 05:24:30;;;;;;;2.63;1.60;;;;;20.30;100710.00;;;;2062014;28;20230;-46
2022/02/05 05:25:30;;;;;;;3.97;2.03;;;;;20.30;100704.00;;;;2062311;28;20675;-46
2022/02/05 05:26:31;;;;;;;4.73;2.30;;;;;20.30;100706.00;;;;2062249;28;20230;-46
2022/02/05 05:27:32;;;;;;;4.30;2.17;;;;;20.30;100710.00;;;;2062065;28;20202;-45
2022/02/05 05:28:32;;;;;;;3.67;2.10;;;;;20.30;100711.00;;;;2062207;28;20864;-46
2022/02/05 05:29:33;;;;;;;3.10;2.17;;;;;20.30;100713.00;;;;2061982;28;20231;-46
2022/02/05 05:30:33;;;;;;;2.80;1.80;;;;;20.30;100712.00;;;;2061050;28;20282;-46
2022/02/05 05:31:34;;;;;;;4.43;2.30;;;;;20.30;100712.00;;;;2061582;28;20227;-46
2022/02/05 05:32:34;;;;;;;4.60;2.03;;;;;20.30;100702.00;;;;2062144;28;20234;-45
2022/02/05 05:33:35;;;;;;;4.40;1.83;;;;;20.30;100708.00;;;;2062081;28;20203;-46
2022/02/05 05:34:36;;;;;;;4.37;2.33;;;;;20.20;100702.00;;;;2061884;28;20215;-46
2022/02/05 05:35:36;;;;;;;3.20;2.10;;;;;20.20;100716.00;;;;2061549;28;20210;-46
2022/02/05 05:36:37;;;;;;;3.80;2.27;;;;;20.20;100706.00;;;;2061493;28;20222;-46
2022/02/05 05:37:37;;;;;;;4.10;1.90;;;;;20.20;100721.00;;;;2061962;28;20257;-46
2022/02/05 05:38:37;;;;;;;4.30;2.10;;;;;20.20;100726.00;;;;2056468;28;20227;-46
2022/02/05 05:39:40;;;;;;;4.83;2.20;;;;;20.20;100727.00;;;;2054174;28;20306;-46
2022/02/05 05:40:42;;;;;;;3.00;1.80;;;;;20.20;100719.00;;;;2057179;28;20238;-46
2022/02/05 05:41:43;;;;;;;4.50;2.50;;;;;20.20;100722.00;;;;2060767;28;20215;-46
2022/02/05 05:42:49;;;;;;;4.30;1.97;;;;;20.20;100721.00;;;;2062119;28;20246;-46
2022/02/05 05:48:42;;;;;;;4.55;2.00;;;;;20.20;100720.00;;;;2060337;28;20297;-46
2022/02/05 05:49:59;;;;;;;3.50;1.90;;;;;20.20;100732.00;;;;2052896;28;20238;-46
2022/02/05 05:50:59;;;;;;;4.25;2.10;;;;;20.20;100736.00;;;;2053006;28;20234;-46
2022/02/05 05:52:00;;;;;;;3.80;2.00;;;;;20.20;100733.00;;;;2053988;28;20712;-45
2022/02/05 05:53:01;;;;;;;5.70;2.43;;;;;20.20;100741.00;;;;2053992;28;20218;-46
2022/02/05 05:54:01;;;;;;;2.42;1.75;;;;;20.20;100745.00;;;;2052871;28;20211;-46
2022/02/05 05:55:02;;;;;;;3.10;1.80;;;;;20.20;100737.00;;;;2053386;28;20215;-46
2022/02/05 05:56:03;;;;;;;2.90;1.90;;;;;20.20;100749.00;;;;2056489;28;20266;-46
2022/02/05 05:57:04;;;;;;;3.58;2.38;;;;;20.20;100747.00;;;;2052929;28;20224;-46
2022/02/05 05:58:04;;;;;;;4.50;2.10;;;;;20.20;100749.00;;;;2058124;28;20382;-46
2022/02/05 05:59:05;;;;;;;4.60;2.03;;;;;20.20;100753.00;;;;2061895;28;20725;-46
2022/02/05 06:00:08;;;;;;;3.87;2.23;;;;;20.20;100742.00;;;;2060541;28;20567;-46
2022/02/05 06:01:10;;;;;;;4.35;2.10;;;;;20.20;100745.00;;;;2059349;28;20211;-46
2022/02/05 06:02:11;;;;;;;4.75;2.20;;;;;20.20;100757.00;;;;2054698;28;20215;-46
2022/02/05 06:03:11;;;;;;;3.70;1.80;;;;;20.20;100755.00;;;;2056226;28;20227;-46
2022/02/05 06:04:12;;;;;;;3.90;1.97;;;;;20.20;100753.00;;;;2057669;28;20291;-46
2022/02/05 06:05:12;;;;;;;4.27;2.10;;;;;20.20;100757.00;;;;2059091;28;20800;-46
2022/02/05 06:06:13;;;;;;;2.27;1.63;;;;;20.20;100758.00;;;;2063035;28;20603;-46
2022/02/05 06:07:14;;;;;;;3.90;2.17;;;;;20.20;100764.00;;;;2062996;28;20219;-46
2022/02/05 06:08:15;;;;;;;4.40;1.60;;;;;20.20;100756.00;;;;2062962;28;20227;-46
2022/02/05 06:09:16;;;;;;;3.00;1.60;;;;;20.20;100757.00;;;;2058039;28;20541;-46
2022/02/05 06:10:16;;;;;;;3.90;1.80;;;;;20.20;100756.00;;;;2062133;28;20218;-46
2022/02/05 06:11:17;;;;;;;4.03;2.17;;;;;20.20;100764.00;;;;2060985;28;21089;-46
2022/02/05 06:12:17;;;;;;;2.93;1.73;;;;;20.20;100754.00;;;;2061527;28;20230;-46
2022/02/05 06:13:18;;;;;;;3.23;1.70;;;;;20.20;100758.00;;;;2062422;28;20667;-46
2022/02/05 06:14:22;;;;;;;4.33;2.33;;;;;20.20;100753.00;;;;2062901;28;20258;-46
2022/02/05 06:15:23;;;;;;;4.00;1.63;;;;;20.20;100762.00;;;;2063250;28;20302;-46
2022/02/05 06:16:29;;;;;;;2.40;1.60;;;;;20.20;100757.00;;;;2062871;28;20237;-51
2022/02/05 06:17:31;;;;;;;3.22;2.03;;;;;20.20;100767.00;;;;2059176;28;20313;-46
2022/02/05 06:18:31;;;;;;;2.95;1.70;;;;;20.20;100776.00;;;;2063301;28;20215;-46
2022/02/05 06:19:32;;;;;;;4.70;2.40;;;;;20.30;100768.00;;;;2063294;28;20309;-46
2022/02/05 06:20:32;;;;;;;3.50;1.73;;;;;20.30;100769.00;;;;2061366;28;20734;-46
2022/02/05 06:21:33;;;;;;;5.47;2.40;;;;;20.30;100770.00;;;;2063171;28;20306;-46
2022/02/05 06:22:34;;;;;;;4.88;1.88;;;;;20.30;100772.00;;;;2062296;28;20257;-46
2022/02/05 06:23:35;;;;;;;3.70;1.90;;;;;20.30;100769.00;;;;2057424;28;20212;-46
2022/02/05 06:24:36;;;;;;;2.80;1.73;;;;;20.30;100771.00;;;;2055371;28;20235;-46
2022/02/05 06:25:39;;;;;;;4.13;2.20;;;;;20.30;100781.00;;;;2057888;28;20215;-46
2022/02/05 06:26:39;;;;;;;3.55;2.22;;;;;20.30;100773.00;;;;2062297;28;20218;-46
2022/02/05 06:27:39;;;;;;;2.90;1.70;;;;;20.30;100782.00;;;;2062704;28;20199;-46
2022/02/05 06:28:40;;;;;;;5.70;1.60;;;;;20.30;100773.00;;;;2063526;28;20242;-46
2022/02/05 06:29:40;;;;;;;2.23;1.60;;;;;20.30;100780.00;;;;2063256;28;20238;-46
2022/02/05 06:30:41;;;;;;;4.40;2.10;;;;;20.30;100779.00;;;;2062409;28;20235;-46
2022/02/05 06:31:42;;;;;;;5.90;2.20;;;;;20.30;100781.00;;;;2063340;28;20622;-46
2022/02/05 06:32:42;;;;;;;2.70;1.80;;;;;20.30;100780.00;;;;2063301;28;20218;-46
2022/02/05 06:33:44;;;;;;;3.30;2.20;;;;;20.30;100782.00;;;;2060638;28;20215;-46
2022/02/05 06:34:44;;;;;;;3.50;2.00;;;;;20.30;100785.00;;;;2063253;28;20579;-46
2022/02/05 06:35:45;;;;;;;4.07;1.80;;;;;20.30;100772.00;;;;2062766;28;20317;-46
2022/02/05 06:36:45;;;;;;;4.63;1.90;;;;;20.40;100787.00;;;;2063163;28;20234;-45
2022/02/05 06:37:46;;;;;;;3.13;1.80;;;;;20.40;100789.00;;;;2059423;28;20219;-45
2022/02/05 06:38:48;;;;;;;2.70;1.83;;;;;20.40;100787.00;;;;2063192;28;20322;-46
2022/02/05 06:39:49;;;;;;;4.05;2.35;;;;;20.40;100793.00;;;;2062394;28;20516;-45
2022/02/05 06:40:50;;;;;;;3.80;2.20;;;;;20.40;100780.00;;;;2061526;28;20691;-46
2022/02/05 06:41:51;;;;;;;3.30;1.88;;;;;20.40;100788.00;;;;2059639;28;20215;-46
2022/02/05 06:42:51;;;;;;;4.20;2.60;;;;;20.40;100798.00;;;;2062613;28;20310;-46
2022/02/05 06:43:52;;;;;;;3.53;1.80;;;;;20.40;100787.00;;;;2062263;28;20695;-45
2022/02/05 06:44:52;;;;;;;2.60;1.47;;;;;20.40;100786.00;;;;2063028;28;20653;-46
2022/02/05 06:45:52;;;;;;;4.27;1.93;;;;;20.50;100793.00;;;;2059867;28;20761;-46
2022/02/05 06:46:52;;;;;;;2.50;1.63;;;;;20.50;100797.00;;;;2062428;28;20684;-46
2022/02/05 06:47:53;;;;;;;4.17;2.27;;;;;20.50;100782.00;;;;2062006;28;20709;-46
2022/02/05 06:48:53;;;;;;;3.07;1.93;;;;;20.50;100794.00;;;;2062670;28;20694;-46
2022/02/05 06:49:54;;;;;;;4.17;1.70;;;;;20.50;100787.00;;;;2062625;28;20235;-46
2022/02/05 06:50:54;;;;;;;3.63;1.77;;;;;20.50;100789.00;;;;2061952;28;20245;-46
2022/02/05 06:51:54;;;;;;;2.50;1.67;;;;;20.50;100797.00;;;;2061910;28;20210;-46
2022/02/05 06:52:57;;;;;;;2.17;1.63;;;;;20.50;100802.00;;;;2053588;28;20215;-46
2022/02/05 06:53:58;;;;;;;3.75;1.80;;;;;20.50;100787.00;;;;2052295;28;20389;-46
2022/02/05 06:54:58;;;;;;;4.53;2.00;;;;;20.50;100801.00;;;;2054547;28;20230;-46
2022/02/05 06:55:58;;;;;;;2.80;1.60;;;;;20.50;100793.00;;;;2055117;28;20471;-45
2022/02/05 06:56:59;;;;;;;3.17;1.67;;;;;20.50;100805.00;;;;2055304;28;20747;-46
2022/02/05 06:58:00;;;;;;;3.43;1.90;;;;;20.50;100799.00;;;;2052682;28;20223;-47
2022/02/05 06:59:01;;;;;;;3.15;1.80;;;;;20.50;100799.00;;;;2054514;28;20467;-46
2022/02/05 07:00:04;;;;;;;4.37;2.30;;;;;20.50;100797.00;;;;2054905;28;20211;-46
2022/02/05 07:01:04;;;;;;;3.25;1.67;;;;;20.50;100782.00;;;;2054059;28;20235;-48
2022/02/05 07:02:05;;;;;;;2.40;1.40;;;;;20.50;100797.00;;;;2055033;28;20755;-46
2022/02/05 07:03:05;;;;;;;3.10;1.63;;;;;20.50;100804.00;;;;2053534;28;20707;-46
2022/02/05 07:04:07;;;;;;;2.70;1.83;;;;;20.60;100806.00;;;;2053654;28;20212;-46
2022/02/05 07:05:07;;;;;;;3.27;1.80;;;;;20.50;100800.00;;;;2054434;28;20270;-46
2022/02/05 07:06:08;;;;;;;3.60;1.87;;;;;20.60;100806.00;;;;2053493;28;20227;-46
2022/02/05 07:07:08;;;;;;;2.30;1.70;;;;;20.60;100812.00;;;;2061841;28;20732;-46
2022/02/05 07:08:08;;;;;;;2.50;1.70;;;;;20.60;100811.00;;;;2062714;28;20211;-46
2022/02/05 07:09:09;;;;;;;2.40;1.50;;;;;20.60;100814.00;;;;2062648;28;20237;-46
2022/02/05 07:10:10;;;;;;;3.83;1.70;;;;;20.60;100812.00;;;;2062275;28;20223;-46